Decoded Metar for USCC (CHELYABINSK in RUSSIA) (IATA:CEK) | Meteo·Mobile Aviation Weather
aviador You're here:

USCC Decoded Metar

CHELYABINSK in RUSSIA
Report Time2019-07-23 06:30:00
UTC Time2019-07-23 06:49:32
Flight Rules vfr VFR
Wind290° at 10 kt
W.Decomp.*RWY 27: 9.9 kt HW 1.2 kt RCW
Visibility9999 m
Phenomena:N/A
Clouds:Scattered CB 020 Hf
Expected CloudBase > 4,000 ft AGL from Temp-Dew spread
CeilingNone
Temp23°C (ISA +10)
Dew Point13°C (53% RH)
AAT20.3°C
QNH1007 hPa
Density Alt2,280 ft
Elevation768 ft
Report Wrong Elevation
Raw Report
USCC 230630Z 29005MPS 9999 SCT020CB 23/13 Q1007 R27/000060 NOSIG
RMK QFE735=

Extra information for USCC:More info

Metar Taf Metar & Taf Last 4 Metars F.Rules Stats Wind Profile Meteogram Temp Stats Airport Information Weather charts Add Link Nearby VenuesMetar ALERT Operation Metar Decoded Social comments